Walnut Hill, Illinois
Current Conditions -  °F | °C
As of 8:55 PM on Thursday 18 Dec 2014 (Local Time) from KENL Reporting Station
Overcast Overcast  
Wind Chill: 32°   Ceiling: 3400
Heat Index: 32°   Visibility: 10mi
Dew Point: 25°   Wind: 0mph
Humidity: 76%   Direction: NA
Pressure: 30.28"   Gusts: NA
Location:  38.48°N, 89.04°W
Report Text: KENL 190255Z AUTO 00000KT 10SM BKN034 OVC042 00/M04 A3028 RMK AO2 T10011039
Loading
Personal Weather Stations






























Interactive Weather Map New forecast layout! Learn more

10-Day Weather Forecast

Advertisements
Track Severe Weather on mobile